Time;durP1;ratioP1;P1;durP2;ratioP2;P2;SDS_P1;SDS_P2;PMS_P1;PMS_P2;Temp;Humidity;BMP_temperature;BMP_pressure;BME280_temperature;BME280_humidity;BME280_pressure;Samples;Min_cycle;Max_cycle;Signal;HPM_P1;HPM_P2
2022/12/30 00:00:30;;;;;;;4.27;1.97;;;;;;;-145.69;100.00;52606.78;5074953;28;20222;-77
2022/12/30 00:02:56;;;;;;;1.60;0.70;;;;;;;-145.69;100.00;52571.13;5075679;28;20293;-77
2022/12/30 00:05:22;;;;;;;1.97;1.00;;;;;;;-145.69;100.00;52620.66;5075568;28;20210;-78
2022/12/30 00:07:50;;;;;;;1.03;0.80;;;;;;;-145.69;100.00;52594.91;5075540;28;20201;-78
2022/12/30 00:10:17;;;;;;;0.67;0.67;;;;;;;-145.69;100.00;52579.06;5075334;28;20569;-79
2022/12/30 00:34:56;;;;;;;1.30;0.67;;;;;;;-145.69;100.00;52598.84;5074959;28;20202;-79
2022/12/30 00:37:22;;;;;;;2.13;0.50;;;;;;;-145.69;100.00;52583.00;5074901;28;20195;-79
2022/12/30 00:39:50;;;;;;;0.80;0.70;;;;;;;-145.69;100.00;52630.53;5074746;28;20199;-78
2022/12/30 00:45:01;;;;;;;1.77;0.83;;;;;;;-145.69;100.00;52606.78;5074810;28;20680;-78
2022/12/30 00:47:28;;;;;;;2.33;0.60;;;;;;;-145.69;100.00;52614.72;5074563;28;20645;-78
2022/12/30 00:58:07;;;;;;;3.10;0.67;;;;;;;-145.69;100.00;52598.84;5075639;28;20264;-78
2022/12/30 01:00:34;;;;;;;0.93;0.60;;;;;;;-145.69;100.00;52598.84;5074752;28;20357;-78
2022/12/30 01:03:00;;;;;;;0.60;0.60;;;;;;;-145.69;100.00;52630.53;5074142;28;20195;-78
2022/12/30 01:05:26;;;;;;;2.10;0.70;;;;;;;-145.69;100.00;52571.13;5074474;28;20203;-78
2022/12/30 01:07:53;;;;;;;1.73;0.60;;;;;;;-145.69;100.00;52630.53;5074213;28;20199;-78
2022/12/30 01:10:19;;;;;;;0.50;0.50;;;;;;;-145.69;100.00;52626.59;5074295;28;20206;-79
2022/12/30 01:12:47;;;;;;;0.60;0.60;;;;;;;-145.69;100.00;52586.97;5073848;28;20199;-78
2022/12/30 01:15:14;;;;;;;2.77;0.60;;;;;;;-145.69;100.00;52590.94;5074026;28;20206;-78
2022/12/30 01:17:40;;;;;;;0.70;0.70;;;;;;;-145.69;100.00;52610.75;5074222;28;20621;-79
2022/12/30 01:20:08;;;;;;;0.53;0.53;;;;;;;-145.69;100.00;52610.75;5073889;28;20190;-79
2022/12/30 01:22:34;;;;;;;0.70;0.60;;;;;;;-145.69;100.00;52604.81;5074184;28;20609;-78
2022/12/30 01:25:01;;;;;;;2.00;0.70;;;;;;;-145.69;100.00;52626.59;5073990;28;20203;-79
2022/12/30 01:27:27;;;;;;;0.57;0.53;;;;;;;-145.69;100.00;52606.78;5073892;28;20207;-79
2022/12/30 01:29:55;;;;;;;0.60;0.50;;;;;;;-145.69;100.00;52626.59;5073789;28;20685;-78
2022/12/30 01:32:23;;;;;;;3.07;0.60;;;;;;;-145.69;100.00;52575.09;5073929;28;20210;-78
2022/12/30 01:34:53;;;;;;;2.10;0.60;;;;;;;-145.69;100.00;52630.53;5073908;28;20203;-79
2022/12/30 01:37:19;;;;;;;0.57;0.57;;;;;;;-145.69;100.00;52622.63;5073631;28;20657;-79
2022/12/30 01:39:46;;;;;;;1.40;0.60;;;;;;;-145.69;100.00;52614.72;5073537;28;20654;-79
2022/12/30 01:42:19;;;;;;;0.63;0.63;;;;;;;-145.69;100.00;52610.75;5073012;28;20261;-79
2022/12/30 01:45:00;;;;;;;1.43;0.60;;;;;;;-145.69;100.00;52626.59;5073730;28;20210;-79
2022/12/30 01:47:40;;;;;;;1.53;0.70;;;;;;;-145.69;100.00;52650.34;5070077;28;21024;-77
2022/12/30 01:50:19;;;;;;;1.03;0.70;;;;;;;-145.69;100.00;52632.53;5073375;28;20260;-79
2022/12/30 01:52:51;;;;;;;0.50;0.50;;;;;;;-145.69;100.00;52614.72;5073388;28;20202;-79
2022/12/30 01:55:24;;;;;;;0.60;0.60;;;;;;;-145.69;100.00;52620.66;5073550;28;20191;-78
2022/12/30 01:57:52;;;;;;;0.70;0.70;;;;;;;-145.69;100.00;52646.41;5073442;28;20206;-78
2022/12/30 02:00:20;;;;;;;2.23;0.70;;;;;;;-145.69;100.00;52614.72;5073359;28;20206;-79
2022/12/30 02:02:46;;;;;;;1.23;0.93;;;;;;;-145.69;100.00;52670.16;5073195;28;20641;-78
2022/12/30 02:05:16;;;;;;;1.23;1.03;;;;;;;-145.69;100.00;52626.59;5073173;28;20203;-79
2022/12/30 02:07:48;;;;;;;1.03;0.90;;;;;;;-145.69;100.00;52598.84;5073070;28;20199;-79
2022/12/30 02:10:16;;;;;;;6.53;1.00;;;;;;;-145.69;100.00;52610.75;5073245;28;20592;-78
2022/12/30 02:12:42;;;;;;;0.73;0.70;;;;;;;-145.69;100.00;52610.75;5072748;28;20217;-79
2022/12/30 02:15:09;;;;;;;0.90;0.80;;;;;;;-145.69;100.00;52610.75;5073186;28;20202;-79
2022/12/30 02:17:48;;;;;;;2.23;1.30;;;;;;;-145.69;100.00;52606.78;5072957;28;20202;-79
2022/12/30 02:20:38;;;;;;;1.50;0.90;;;;;;;-145.69;100.00;52598.84;5072999;28;20678;-79
2022/12/30 02:23:37;;;;;;;0.80;0.80;;;;;;;-145.69;100.00;52626.59;5073110;28;20206;-79
2022/12/30 02:26:28;;;;;;;7.13;0.87;;;;;;;-145.69;100.00;52569.16;5073008;28;20214;-79
2022/12/30 02:29:13;;;;;;;1.90;0.83;;;;;;;-145.69;100.00;52622.63;5073169;28;20206;-79
2022/12/30 02:31:52;;;;;;;0.60;0.60;;;;;;;-145.69;100.00;52586.97;5073150;28;20201;-79
2022/12/30 02:34:27;;;;;;;0.60;0.53;;;;;;;-145.69;100.00;52590.94;5072836;28;20194;-79
2022/12/30 02:37:04;;;;;;;1.00;0.90;;;;;;;-145.69;100.00;52604.81;5073314;28;20194;-78
2022/12/30 02:39:36;;;;;;;0.70;0.70;;;;;;;-145.69;100.00;52592.91;5073018;28;20240;-79
2022/12/30 02:45:09;;;;;;;0.80;0.60;;;;;;;-145.69;100.00;52622.63;5059730;28;20283;-77
2022/12/30 02:47:41;;;;;;;2.90;0.60;;;;;;;-145.69;100.00;52590.94;5072895;28;20628;-78
2022/12/30 02:52:58;;;;;;;0.93;0.50;;;;;;;-145.69;100.00;52608.75;5072699;28;20197;-78
2022/12/30 02:55:25;;;;;;;1.90;0.70;;;;;;;-145.69;100.00;52614.72;5072204;28;20203;-78
2022/12/30 02:57:51;;;;;;;3.80;0.70;;;;;;;-145.69;100.00;52628.56;5071304;28;20434;-78
2022/12/30 03:06:45;;;;;;;0.63;0.50;;;;;;;-145.69;100.00;52622.63;5072199;28;20206;-79
2022/12/30 03:09:21;;;;;;;0.67;0.60;;;;;;;-145.69;100.00;52620.66;5072399;28;20199;-79
2022/12/30 03:11:56;;;;;;;0.57;0.57;;;;;;;-145.69;100.00;52632.53;5072532;28;20198;-79
2022/12/30 03:14:27;;;;;;;0.53;0.53;;;;;;;-145.69;100.00;52602.81;5072299;28;20535;-79
2022/12/30 03:16:59;;;;;;;0.60;0.60;;;;;;;-145.69;100.00;52628.56;5072759;28;20203;-79
2022/12/30 03:19:30;;;;;;;0.60;0.60;;;;;;;-145.69;100.00;52626.59;5074210;28;20209;-80
2022/12/30 03:21:58;;;;;;;0.80;0.60;;;;;;;-145.69;100.00;52610.75;5076384;28;20226;-80
2022/12/30 03:27:23;;;;;;;0.90;0.70;;;;;;;-145.69;100.00;52608.75;5054050;28;20276;-79
2022/12/30 03:29:54;;;;;;;0.70;0.70;;;;;;;-145.69;100.00;52602.81;5070395;28;20210;-80
2022/12/30 03:32:22;;;;;;;5.07;0.80;;;;;;;-145.69;100.00;52634.50;5076123;28;20205;-79
2022/12/30 03:34:51;;;;;;;2.30;0.80;;;;;;;-145.69;100.00;52638.47;5075947;28;20203;-80
2022/12/30 03:37:22;;;;;;;0.93;0.93;;;;;;;-145.69;100.00;52638.47;5075977;28;20199;-80
2022/12/30 03:39:54;;;;;;;0.90;0.90;;;;;;;-145.69;100.00;52646.41;5076174;28;20205;-80
2022/12/30 03:42:22;;;;;;;0.70;0.70;;;;;;;-145.69;100.00;52620.66;5075596;28;20731;-79
2022/12/30 03:44:50;;;;;;;2.53;0.70;;;;;;;-145.69;100.00;52646.41;5075049;28;20442;-79
2022/12/30 03:47:19;;;;;;;1.07;0.80;;;;;;;-145.69;100.00;52610.75;5075021;28;20203;-78
2022/12/30 03:49:46;;;;;;;0.90;0.90;;;;;;;-145.69;100.00;52682.03;5075974;28;20199;-79
2022/12/30 03:52:15;;;;;;;0.80;0.80;;;;;;;-145.69;100.00;52624.59;5076006;28;20206;-79
2022/12/30 03:54:42;;;;;;;1.50;0.83;;;;;;;-145.69;100.00;52614.72;5075482;28;20206;-79
2022/12/30 03:57:09;;;;;;;3.80;1.10;;;;;;;-145.69;100.00;52626.59;5075601;28;20202;-79
2022/12/30 03:59:35;;;;;;;1.07;1.03;;;;;;;-145.69;100.00;52654.31;5075204;28;20203;-78
2022/12/30 04:02:01;;;;;;;2.80;1.30;;;;;;;-145.69;100.00;52624.59;5075286;28;20234;-77
2022/12/30 04:04:28;;;;;;;1.10;1.00;;;;;;;-145.69;100.00;52632.53;5075542;28;20666;-79
2022/12/30 04:06:54;;;;;;;1.90;1.00;;;;;;;-145.69;100.00;52650.34;5075514;28;20209;-78
2022/12/30 04:09:22;;;;;;;1.30;1.20;;;;;;;-145.69;100.00;52614.72;5075374;28;20195;-79
2022/12/30 04:11:49;;;;;;;0.97;0.93;;;;;;;-145.69;100.00;52642.44;5075436;28;20209;-78
2022/12/30 04:14:16;;;;;;;1.80;1.30;;;;;;;-145.69;100.00;52642.44;5075246;28;20717;-78
2022/12/30 04:16:42;;;;;;;1.57;1.10;;;;;;;-145.69;100.00;52654.31;5075344;28;20244;-78
2022/12/30 04:19:09;;;;;;;2.90;1.10;;;;;;;-145.69;100.00;52614.72;5075389;28;20207;-79
2022/12/30 04:21:35;;;;;;;2.10;0.90;;;;;;;-145.69;100.00;52598.84;5075332;28;20230;-79
2022/12/30 04:24:02;;;;;;;2.20;1.07;;;;;;;-145.69;100.00;52670.16;5074107;28;20203;-79
2022/12/30 04:26:30;;;;;;;2.27;1.13;;;;;;;-145.69;100.00;52634.50;5076290;28;20202;-79
2022/12/30 04:28:56;;;;;;;3.77;1.40;;;;;;;-145.69;100.00;52614.72;5074983;28;20203;-79
2022/12/30 04:31:23;;;;;;;1.50;1.17;;;;;;;-145.69;100.00;52620.66;5075019;28;20207;-79
2022/12/30 04:33:50;;;;;;;2.03;1.23;;;;;;;-145.69;100.00;52654.31;5075183;28;20199;-78
2022/12/30 04:36:17;;;;;;;5.63;1.60;;;;;;;-145.69;100.00;52624.59;5075140;28;20202;-79
2022/12/30 04:38:43;;;;;;;1.40;1.13;;;;;;;-145.69;100.00;52590.94;5074448;28;20206;-79
2022/12/30 04:41:10;;;;;;;3.27;0.90;;;;;;;-145.69;100.00;52606.78;5074664;28;20227;-79
2022/12/30 04:43:38;;;;;;;2.70;0.90;;;;;;;-145.69;100.00;52598.84;5074645;28;20199;-79
2022/12/30 04:46:06;;;;;;;1.30;0.77;;;;;;;-145.69;100.00;52624.59;5074649;28;20194;-78
2022/12/30 04:48:32;;;;;;;4.30;1.07;;;;;;;-145.69;100.00;52634.50;5074800;28;20210;-80
2022/12/30 04:50:59;;;;;;;0.50;0.50;;;;;;;-145.69;100.00;52610.75;5074544;28;20210;-79
2022/12/30 04:53:25;;;;;;;1.13;0.80;;;;;;;-145.69;100.00;52646.41;5074708;28;20205;-80
2022/12/30 04:55:52;;;;;;;0.80;0.80;;;;;;;-145.69;100.00;52638.47;5074471;28;20199;-80
2022/12/30 04:58:19;;;;;;;2.37;0.70;;;;;;;-145.69;100.00;52668.19;5074397;28;20230;-80
2022/12/30 05:00:49;;;;;;;0.63;0.63;;;;;;;-145.69;100.00;52616.69;5074648;28;20209;-80
2022/12/30 05:03:16;;;;;;;2.77;0.93;;;;;;;-145.69;100.00;52618.66;5074575;28;20233;-79
2022/12/30 05:05:42;;;;;;;0.70;0.70;;;;;;;-145.69;100.00;52648.38;5074425;28;20231;-79
2022/12/30 05:08:09;;;;;;;3.33;1.17;;;;;;;-145.69;100.00;52636.50;5073734;28;20190;-79
2022/12/30 05:10:36;;;;;;;0.67;0.67;;;;;;;-145.69;100.00;52642.44;5074152;28;20199;-79
2022/12/30 05:13:03;;;;;;;1.00;0.80;;;;;;;-145.69;100.00;52658.28;5074338;28;20187;-78
2022/12/30 05:15:29;;;;;;;1.63;0.80;;;;;;;-145.69;100.00;52646.41;5074403;28;20225;-79
2022/12/30 05:17:57;;;;;;;3.37;1.00;;;;;;;-145.69;100.00;52642.44;5074136;28;20202;-78
2022/12/30 05:20:24;;;;;;;1.10;0.90;;;;;;;-145.69;100.00;52602.81;5074121;28;20222;-79
2022/12/30 05:22:50;;;;;;;3.90;1.00;;;;;;;-145.69;100.00;52652.34;5073770;28;20230;-79
2022/12/30 05:28:01;;;;;;;2.07;0.90;;;;;;;-145.69;100.00;52656.28;5073966;28;20198;-80
2022/12/30 05:30:27;;;;;;;1.27;1.10;;;;;;;-145.69;100.00;52638.47;5073956;28;20202;-80
2022/12/30 05:32:54;;;;;;;2.20;1.00;;;;;;;-145.69;100.00;52588.97;5073714;28;20209;-79
2022/12/30 05:35:21;;;;;;;1.43;1.30;;;;;;;-145.69;100.00;52652.34;5073820;28;20210;-79
2022/12/30 05:37:48;;;;;;;2.23;0.97;;;;;;;-145.69;100.00;52664.22;5073394;28;20191;-79
2022/12/30 05:40:15;;;;;;;2.87;1.07;;;;;;;-145.69;100.00;52642.44;5053923;28;20199;-79
2022/12/30 05:42:41;;;;;;;1.20;0.90;;;;;;;-145.69;100.00;52646.41;5052740;28;20567;-80
2022/12/30 05:45:09;;;;;;;4.03;1.10;;;;;;;-145.69;100.00;52626.59;5053583;28;20204;-79
2022/12/30 05:47:35;;;;;;;1.20;1.10;;;;;;;-145.69;100.00;52648.38;5053520;28;20202;-79
2022/12/30 05:50:02;;;;;;;1.20;1.10;;;;;;;-145.69;100.00;52646.41;5053745;28;20199;-79
2022/12/30 05:52:30;;;;;;;3.42;1.33;;;;;;;-145.69;100.00;52662.22;5052657;28;20439;-79
2022/12/30 05:54:56;;;;;;;1.50;1.40;;;;;;;-145.69;100.00;52626.59;5055988;28;20334;-79
2022/12/30 05:57:22;;;;;;;1.60;0.90;;;;;;;-145.69;100.00;52646.41;5070230;28;20203;-79
2022/12/30 05:59:49;;;;;;;1.97;1.20;;;;;;;-145.69;100.00;52650.34;5073335;28;20668;-79
2022/12/30 06:02:15;;;;;;;2.43;0.97;;;;;;;-145.69;100.00;52628.56;5072765;28;20585;-79
2022/12/30 06:04:42;;;;;;;1.90;0.80;;;;;;;-145.69;100.00;52618.66;5073352;28;20202;-80
2022/12/30 06:07:08;;;;;;;2.37;1.23;;;;;;;-145.69;100.00;52622.63;5073085;28;20202;-80
2022/12/30 06:09:36;;;;;;;3.13;0.83;;;;;;;-145.69;100.00;52634.50;5072930;28;20195;-78
2022/12/30 06:12:02;;;;;;;1.63;0.90;;;;;;;-145.69;100.00;52640.44;5073038;28;20210;-79
2022/12/30 06:14:29;;;;;;;2.27;0.90;;;;;;;-145.69;100.00;52650.34;5073178;28;20205;-79
2022/12/30 06:16:55;;;;;;;2.10;0.77;;;;;;;-145.69;100.00;52606.78;5072964;28;20210;-79
2022/12/30 06:19:21;;;;;;;0.93;0.93;;;;;;;-145.69;100.00;52654.31;5072995;28;20553;-79
2022/12/30 06:21:48;;;;;;;2.23;0.70;;;;;;;-145.69;100.00;52624.59;5073126;28;20218;-80
2022/12/30 06:24:14;;;;;;;2.97;0.90;;;;;;;-145.69;100.00;52670.16;5072947;28;20202;-80
2022/12/30 06:26:42;;;;;;;2.10;0.70;;;;;;;-145.69;100.00;52682.03;5073066;28;20206;-80
2022/12/30 06:29:09;;;;;;;4.03;1.20;;;;;;;-145.69;100.00;52662.22;5073026;28;20608;-79
2022/12/30 06:31:35;;;;;;;1.30;1.00;;;;;;;-145.69;100.00;52624.59;5072810;28;20281;-80
2022/12/30 06:34:01;;;;;;;2.00;0.83;;;;;;;-145.69;100.00;52670.16;5072703;28;20206;-80
2022/12/30 06:36:28;;;;;;;1.50;0.70;;;;;;;-145.69;100.00;52670.16;5073023;28;20206;-80
2022/12/30 06:38:54;;;;;;;0.90;0.90;;;;;;;-145.69;100.00;52638.47;5072838;28;20199;-79
2022/12/30 06:41:21;;;;;;;2.20;0.97;;;;;;;-145.69;100.00;52628.56;5072735;28;20268;-79
2022/12/30 06:43:48;;;;;;;1.20;0.83;;;;;;;-145.69;100.00;52662.22;5072741;28;20234;-79
2022/12/30 06:46:15;;;;;;;1.90;1.30;;;;;;;-145.69;100.00;52668.19;5072862;28;20221;-80
2022/12/30 06:48:41;;;;;;;1.47;1.00;;;;;;;-145.69;100.00;52666.19;5072703;28;20210;-80
2022/12/30 06:51:08;;;;;;;1.37;0.90;;;;;;;-145.69;100.00;52662.22;5073020;28;20235;-79
2022/12/30 06:53:34;;;;;;;2.20;0.90;;;;;;;-145.69;100.00;52650.34;5073231;28;20203;-79
2022/12/30 06:56:01;;;;;;;1.50;1.00;;;;;;;-145.69;100.00;52658.28;5076664;28;20676;-79
2022/12/30 06:58:27;;;;;;;2.80;0.87;;;;;;;-145.69;100.00;52682.03;5076836;28;20214;-79
2022/12/30 07:00:55;;;;;;;1.17;0.90;;;;;;;-145.69;100.00;52626.59;5076787;28;20226;-80
2022/12/30 07:03:22;;;;;;;2.47;1.10;;;;;;;-145.69;100.00;52630.53;5076202;28;20717;-78
2022/12/30 07:05:48;;;;;;;1.87;0.93;;;;;;;-145.69;100.00;52662.22;5076879;28;20206;-78
2022/12/30 07:08:14;;;;;;;3.20;1.13;;;;;;;-145.69;100.00;52626.59;5076682;28;20198;-79
2022/12/30 07:10:41;;;;;;;1.83;1.00;;;;;;;-145.69;100.00;52646.41;5076180;28;20205;-79
2022/12/30 07:13:13;;;;;;;7.03;1.20;;;;;;;-145.69;100.00;52658.28;5076152;28;20206;-79
2022/12/30 07:15:40;;;;;;;3.43;0.90;;;;;;;-145.69;100.00;52652.34;5076171;28;20241;-79
2022/12/30 07:18:08;;;;;;;4.23;1.27;;;;;;;-145.69;100.00;52670.16;5076643;28;20209;-79
2022/12/30 07:20:35;;;;;;;3.70;1.43;;;;;;;-145.69;100.00;52693.94;5076480;28;20203;-79
2022/12/30 07:23:01;;;;;;;3.20;1.27;;;;;;;-145.69;100.00;52626.59;5076315;28;20234;-78
2022/12/30 07:25:27;;;;;;;1.73;1.37;;;;;;;-145.69;100.00;52654.31;5076255;28;20568;-80
2022/12/30 07:27:58;;;;;;;4.17;2.20;;;;;;;-145.69;100.00;52634.50;5076312;28;20202;-79
2022/12/30 07:30:25;;;;;;;84.33;22.07;;;;;;;-145.69;100.00;52632.53;5076061;28;20264;-79
2022/12/30 07:32:51;;;;;;;8.17;3.40;;;;;;;-145.69;100.00;52634.50;5075422;28;20198;-79
2022/12/30 07:35:19;;;;;;;7.73;2.10;;;;;;;-145.69;100.00;52644.41;5076314;28;20266;-79
2022/12/30 07:37:45;;;;;;;8.33;3.00;;;;;;;-145.69;100.00;52656.28;5075922;28;20199;-79
2022/12/30 07:40:12;;;;;;;6.50;3.20;;;;;;;-145.69;100.00;52674.13;5077164;28;20195;-79
2022/12/30 07:42:39;;;;;;;3.27;1.77;;;;;;;-145.69;100.00;52646.41;5075277;28;20227;-79
2022/12/30 07:45:06;;;;;;;2.20;1.30;;;;;;;-145.69;100.00;52666.19;5075866;28;20228;-80
2022/12/30 07:47:34;;;;;;;2.07;1.00;;;;;;;-145.69;100.00;52634.50;5076049;28;20198;-79
2022/12/30 07:50:00;;;;;;;3.87;1.20;;;;;;;-145.69;100.00;52686.00;5063475;28;20203;-79
2022/12/30 07:52:28;;;;;;;3.47;1.80;;;;;;;-145.69;100.00;52618.66;5054810;28;20447;-79
2022/12/30 07:54:55;;;;;;;1.37;1.10;;;;;;;-145.69;100.00;52654.31;5057989;28;20203;-79
2022/12/30 07:57:21;;;;;;;5.57;1.07;;;;;;;-145.69;100.00;52650.34;5075666;28;20281;-79
2022/12/30 07:59:47;;;;;;;3.07;1.10;;;;;;;-145.69;100.00;52626.59;5075803;28;20199;-78
2022/12/30 08:02:14;;;;;;;3.10;1.50;;;;;;;-145.69;100.00;52664.22;5075412;28;20194;-78
2022/12/30 08:04:40;;;;;;;4.70;1.40;;;;;;;-145.69;100.00;52644.41;5075182;28;20203;-78
2022/12/30 08:07:07;;;;;;;3.70;1.40;;;;;;;-145.69;100.00;52626.59;5075551;28;20210;-78
2022/12/30 08:09:36;;;;;;;3.27;1.43;;;;;;;-145.69;100.00;52648.38;5075512;28;20203;-78
2022/12/30 08:12:03;;;;;;;4.73;1.37;;;;;;;-145.69;100.00;52674.13;5075076;28;20199;-78
2022/12/30 08:14:29;;;;;;;3.30;1.10;;;;;;;-145.69;100.00;52628.56;5075507;28;20561;-78
2022/12/30 08:16:55;;;;;;;2.13;1.37;;;;;;;-145.69;100.00;52642.44;5075452;28;20202;-78
2022/12/30 08:19:22;;;;;;;4.60;1.33;;;;;;;-145.69;100.00;52630.53;5075349;28;20202;-79
2022/12/30 08:21:48;;;;;;;7.60;1.63;;;;;;;-145.69;100.00;52662.22;5075288;28;20207;-79
2022/12/30 08:24:15;;;;;;;7.50;3.27;;;;;;;-145.69;100.00;52622.63;5075146;28;20237;-79
2022/12/30 08:26:43;;;;;;;5.70;2.60;;;;;;;-145.69;100.00;52612.72;5075018;28;20199;-79
2022/12/30 08:29:09;;;;;;;5.80;2.07;;;;;;;-145.69;100.00;52622.63;5075315;28;20202;-78
2022/12/30 08:31:35;;;;;;;5.00;2.30;;;;;;;-145.69;100.00;52618.66;5075056;28;20600;-78
2022/12/30 08:34:02;;;;;;;1.77;1.67;;;;;;;-145.69;100.00;52616.69;5074763;28;20205;-78
2022/12/30 08:36:29;;;;;;;4.90;1.57;;;;;;;-145.69;100.00;52654.31;5074927;28;20681;-78
2022/12/30 08:39:00;;;;;;;6.30;1.50;;;;;;;-145.69;100.00;52622.63;5074862;28;20198;-79
2022/12/30 08:41:28;;;;;;;2.70;1.77;;;;;;;-145.69;100.00;52642.44;5074592;28;20222;-78
2022/12/30 08:43:58;;;;;;;2.40;1.77;;;;;;;-145.69;100.00;52626.59;5074662;28;20222;-79
2022/12/30 08:46:25;;;;;;;2.90;1.63;;;;;;;-145.69;100.00;52620.66;5074788;28;20202;-79
2022/12/30 08:48:52;;;;;;;3.80;1.97;;;;;;;-145.69;100.00;52622.63;5074781;28;20199;-79
2022/12/30 08:51:18;;;;;;;4.73;1.80;;;;;;;-145.69;100.00;52626.59;5074734;28;20202;-80
2022/12/30 08:53:45;;;;;;;5.63;1.50;;;;;;;-145.69;100.00;52646.41;5074506;28;20207;-78
2022/12/30 08:56:15;;;;;;;2.77;1.70;;;;;;;-145.69;100.00;52628.56;5074667;28;20226;-79
2022/12/30 08:58:42;;;;;;;6.83;3.43;;;;;;;-145.69;100.00;52614.72;5074619;28;20198;-78
2022/12/30 09:01:10;;;;;;;2.50;1.53;;;;;;;-145.69;100.00;52642.44;5074573;28;20202;-79
2022/12/30 09:03:37;;;;;;;3.50;1.77;;;;;;;-145.69;100.00;52682.03;5073824;28;20229;-78
2022/12/30 09:06:04;;;;;;;3.50;1.90;;;;;;;-145.69;100.00;52636.50;5074182;28;20203;-77
2022/12/30 09:08:31;;;;;;;3.70;1.30;;;;;;;-145.69;100.00;52638.47;5074473;28;20199;-77
2022/12/30 09:10:58;;;;;;;1.47;1.07;;;;;;;-145.69;100.00;52622.63;5073907;28;20697;-77
2022/12/30 09:13:25;;;;;;;3.07;1.40;;;;;;;-145.69;100.00;52626.59;5074149;28;20197;-77
2022/12/30 09:15:51;;;;;;;1.53;1.10;;;;;;;-145.69;100.00;52630.53;5073912;28;20203;-78
2022/12/30 09:18:20;;;;;;;2.67;1.73;;;;;;;-145.69;100.00;52630.53;5073549;28;20206;-78
2022/12/30 09:20:46;;;;;;;1.37;1.20;;;;;;;-145.69;100.00;52658.28;5073992;28;20203;-78
2022/12/30 09:23:12;;;;;;;1.90;1.60;;;;;;;-145.69;100.00;52614.72;5074143;28;20226;-78
2022/12/30 09:25:39;;;;;;;2.03;1.20;;;;;;;-145.69;100.00;52624.59;5074004;28;20213;-78
2022/12/30 09:28:05;;;;;;;5.67;1.73;;;;;;;-145.69;100.00;52642.44;5074257;28;20202;-78
2022/12/30 09:30:32;;;;;;;4.60;1.80;;;;;;;-145.69;100.00;52638.47;5073726;28;20195;-77
2022/12/30 09:32:58;;;;;;;3.83;2.00;;;;;;;-145.69;100.00;52650.34;5073498;28;20195;-76
2022/12/30 09:35:26;;;;;;;2.13;1.50;;;;;;;-145.69;100.00;52616.69;5073729;28;20210;-76
2022/12/30 09:37:53;;;;;;;3.17;2.20;;;;;;;-145.69;100.00;52586.97;5073848;28;20735;-77
2022/12/30 09:40:24;;;;;;;2.70;1.53;;;;;;;-145.69;100.00;52628.56;5073869;28;20206;-77
2022/12/30 09:45:52;;;;;;;3.13;1.43;;;;;;;-145.69;100.00;52634.50;5070156;28;20214;-80
2022/12/30 09:48:24;;;;;;;1.90;1.60;;;;;;;-145.69;100.00;52610.75;5072807;28;20745;-78
2022/12/30 09:50:55;;;;;;;5.03;1.60;;;;;;;-145.69;100.00;52602.81;5073410;28;20198;-77
2022/12/30 09:53:34;;;;;;;1.83;1.23;;;;;;;-145.69;100.00;52606.78;5073324;28;20203;-79
2022/12/30 09:56:05;;;;;;;3.53;1.47;;;;;;;-145.69;100.00;52656.28;5073095;28;20233;-79
2022/12/30 09:58:35;;;;;;;2.43;1.23;;;;;;;-145.69;100.00;52638.47;5073353;28;20206;-78
2022/12/30 10:01:13;;;;;;;1.60;1.20;;;;;;;-145.69;100.00;52606.78;5073246;28;20237;-79
2022/12/30 10:03:39;;;;;;;2.00;1.50;;;;;;;-145.69;100.00;52614.72;5072839;28;20245;-79
2022/12/30 10:06:18;;;;;;;2.85;1.20;;;;;;;-145.69;100.00;52606.78;5071890;28;20444;-79
2022/12/30 10:09:15;;;;;;;2.70;1.00;;;;;;;-145.69;100.00;52612.72;5073290;28;20205;-77
2022/12/30 10:11:56;;;;;;;1.57;1.00;;;;;;;-145.69;100.00;52604.81;5072961;28;20199;-75
2022/12/30 10:14:31;;;;;;;1.97;1.20;;;;;;;-145.69;100.00;52614.72;5073079;28;20569;-76
2022/12/30 10:17:09;;;;;;;2.67;0.98;;;;;;;-145.69;100.00;52602.81;5052629;28;20435;-76
2022/12/30 10:19:47;;;;;;;1.50;0.97;;;;;;;-145.69;100.00;52594.91;5052992;28;20199;-78
2022/12/30 10:22:21;;;;;;;1.20;1.00;;;;;;;-145.69;100.00;52642.44;5052948;28;20207;-75
2022/12/30 10:25:03;;;;;;;0.97;0.80;;;;;;;-145.69;100.00;52618.66;5052678;28;20223;-76
2022/12/30 10:27:39;;;;;;;0.80;0.80;;;;;;;-145.69;100.00;52630.53;5052334;28;20302;-76
2022/12/30 10:30:13;;;;;;;4.87;0.83;;;;;;;-145.69;100.00;52594.91;5052663;28;20199;-75
2022/12/30 10:32:47;;;;;;;2.50;0.90;;;;;;;-145.69;100.00;52610.75;5052627;28;20206;-77
2022/12/30 10:35:19;;;;;;;0.97;0.70;;;;;;;-145.69;100.00;52590.94;5072194;28;20201;-75
2022/12/30 10:37:49;;;;;;;0.70;0.70;;;;;;;-145.69;100.00;52606.78;5072470;28;20234;-76
2022/12/30 10:40:17;;;;;;;2.03;0.90;;;;;;;-145.69;100.00;52592.91;5072102;28;20194;-75
2022/12/30 10:43:05;;;;;;;4.10;0.80;;;;;;;-145.69;100.00;52604.81;5071948;28;20234;-75
2022/12/30 10:45:46;;;;;;;4.37;0.77;;;;;;;-145.69;100.00;52628.56;5072523;28;20320;-76
2022/12/30 10:48:29;;;;;;;1.63;0.80;;;;;;;-145.69;100.00;52577.06;5071018;28;20198;-75
2022/12/30 10:50:56;;;;;;;2.20;0.60;;;;;;;-145.69;100.00;52612.72;5070844;28;20198;-78
2022/12/30 10:53:26;;;;;;;6.73;0.90;;;;;;;-145.69;100.00;52590.94;5072171;28;20259;-78
2022/12/30 10:55:55;;;;;;;1.17;0.67;;;;;;;-145.69;100.00;52590.94;5071947;28;20260;-78
2022/12/30 10:58:27;;;;;;;0.87;0.60;;;;;;;-145.69;100.00;52598.84;5072355;28;20206;-77
2022/12/30 11:00:54;;;;;;;1.10;0.70;;;;;;;-145.69;100.00;52583.00;5072503;28;20199;-81
2022/12/30 11:03:33;;;;;;;0.70;0.60;;;;;;;-145.69;100.00;52581.03;5073599;28;20603;-78
2022/12/30 11:06:16;;;;;;;1.40;1.30;;;;;;;-145.69;100.00;52606.78;5072450;28;20202;-79
2022/12/30 11:08:44;;;;;;;1.47;0.60;;;;;;;-145.69;100.00;52624.59;5072369;28;20195;-76
2022/12/30 11:11:11;;;;;;;2.60;0.90;;;;;;;-145.69;100.00;52590.94;5072190;28;20198;-76
2022/12/30 11:16:26;;;;;;;1.20;0.97;;;;;;;-145.69;100.00;52579.06;5072256;28;20280;-75
2022/12/30 11:18:54;;;;;;;0.80;0.80;;;;;;;-145.69;100.00;52555.28;5072041;28;20199;-76
2022/12/30 11:21:25;;;;;;;1.67;0.77;;;;;;;-145.69;100.00;52608.75;5071421;28;20199;-75
2022/12/30 11:23:56;;;;;;;1.70;1.10;;;;;;;-145.69;100.00;52586.97;5071800;28;20237;-75
2022/12/30 11:26:25;;;;;;;0.80;0.80;;;;;;;-145.69;100.00;52559.25;5072351;28;20202;-76
2022/12/30 11:28:55;;;;;;;1.27;0.80;;;;;;;-145.69;100.00;52575.09;5072264;28;20205;-76
2022/12/30 11:31:22;;;;;;;1.13;0.90;;;;;;;-145.69;100.00;52590.94;5072156;28;20285;-77
2022/12/30 11:33:52;;;;;;;2.10;1.00;;;;;;;-145.69;100.00;52573.13;5057648;28;20210;-74
2022/12/30 11:36:22;;;;;;;1.93;0.90;;;;;;;-145.69;100.00;52583.00;5061972;28;20202;-76
2022/12/30 11:38:49;;;;;;;1.67;0.80;;;;;;;-145.69;100.00;52579.06;5070681;28;20670;-76
2022/12/30 11:41:26;;;;;;;1.70;0.70;;;;;;;-145.69;100.00;52575.09;5074612;28;20223;-75
2022/12/30 11:44:07;;;;;;;0.93;0.70;;;;;;;-145.69;100.00;52586.97;5075084;28;20684;-75
2022/12/30 11:46:38;;;;;;;1.13;0.83;;;;;;;-145.69;100.00;52571.13;5075536;28;20199;-75
2022/12/30 11:49:15;;;;;;;2.10;0.70;;;;;;;-145.69;100.00;52618.66;5075371;28;20672;-75
2022/12/30 11:51:44;;;;;;;1.23;0.73;;;;;;;-145.69;100.00;52579.06;5075422;28;20186;-76
2022/12/30 11:54:16;;;;;;;1.27;0.60;;;;;;;-145.69;100.00;52555.28;5075423;28;20210;-76
2022/12/30 11:56:53;;;;;;;2.27;0.60;;;;;;;-145.69;100.00;52575.09;5073319;28;20195;-76
2022/12/30 11:59:23;;;;;;;1.33;0.60;;;;;;;-145.69;100.00;52551.31;5075385;28;20201;-77
2022/12/30 12:01:53;;;;;;;1.83;0.57;;;;;;;-145.69;100.00;52585.00;5075097;28;20195;-76
2022/12/30 12:04:37;;;;;;;2.63;0.60;;;;;;;-145.69;100.00;52535.47;5071749;28;20227;-76
2022/12/30 12:07:08;;;;;;;0.50;0.50;;;;;;;-145.69;100.00;52543.41;5075401;28;20202;-76
2022/12/30 12:09:38;;;;;;;1.17;0.60;;;;;;;-145.69;100.00;52610.75;5075044;28;20570;-76
2022/12/30 12:12:12;;;;;;;0.70;0.50;;;;;;;-145.69;100.00;52581.03;5075220;28;20661;-75
2022/12/30 12:14:57;;;;;;;2.20;0.57;;;;;;;-145.69;100.00;52565.19;5075320;28;20661;-76